Aviation Digital Data Service (ADDS)

Output produced by METARs form (1859 UTC 02 March 2015)
found at http://aviationweather.gov/adds/metars/
 
KINT 021735Z 0218/0318 33012G20KT P6SM SCT025 BKN250 
     FM022300 35005KT P6SM SCT035 BKN200 
     FM030600 06003KT P6SM OVC015 
     PROB30 0309/0312 3SM -DZ OVC008 
     FM031200 07003KT 4SM -DZ BR SCT007 OVC015